Más de esta sección

VUELOS DE BAJOS NIVEL - Aeronáutica

   

                                                             

                   

VUELOS DE BAJO NIVEL DESDE SUPERFICIE HASTA 24,000 PIES

 VALIDO DESDE 271200Z...………………HASTA 280000Z SALIDA Y PUESTA  DEL  SOL  07:13/18:30 

SANTO DOMINGO FIR...PORT-AU-PRINCE FIR…SCT025 SCT-BKN050 TOP 100-120. WDLY SCT SHRA.

 OTLK...VFR SHRA.

RMNDR WTRS...SCT025 SCT050. OCNL BKN050 TOP 080-100. ISOL TO

 WDLY SCT SHRA. WND NE 20-25KT S OF 18N. OTLK...VFR SHRA...WND S

 OF 18N.

 

5,000 FT.

10,000 FT.

18,000 FT.

24,000 FT.

MDSD

0425KT+15ºC

0425KT+09ºC

0420KT-05ºC

0420KT-18ºC

MTPP

0910KT+15ºC

0420KT+10ºC

0415KT-05ºC

0715KT-18ºC

TJSJ

0420KT+14ºC

0420KT+08ºC

0425KT-04ºC

0425KT-17ºC

 

 

 

 

 

 

TAF MDPP 271000Z 2712/2812 00000KT 9999 FEW016 BEMG 2713/2715 12008KT=

TAF MDST 271000Z 2712/2812 00000KT 9999 SCT018 BECMG 2713/2715 10005KT=

TAF MDPC 271000Z 2712/2812 06010KT 9999 BKN018 PROB30 2712/2718 7000 RA BKN017 SCT070=

TAF MDBH 271000Z 2712/2812 00000KT 9999 FEW018 BECMG 2713/2715 27010KT FM271800 13015KT 9999 FEW020CB SCT022 SCT080=

TAF MDJB 271000Z 2712/2812 00000KT 9999 FEW018 BECMG 2713/2715 36010KT PROB40 2718/2722 6000 RA BKN015 BKN070  BECMG 2717/2719 18010KT=

 TAF MDSD 271000Z 2712/2812 01005KT 9999 FEW016 PROB40 2718/2722 7000 -RA BKN015 BKN070 BECMG 2715/2717 13012KT=

TAF MDLR 271000Z 2712/2812 04010KT 9999 SCT018 PROB40 2715/2721 7000 –RA BKN016 SCT070=

TAF MDCY 271000Z 2712/2812 00000KT 9999 SCT018 PROB40 2712/2718 7000 –RA BKN016 BKN070 FM 271600 07010KT=

KMIA 270855Z 2709/2812 35007KT P6SM SCT030 BKN060 FM271500 02012KT P6SM FEW030 SCT050
  FM280000 04007KT P6SM FEW025 SCT040

KJFK 270908Z 2709/2812 26012KT P6SM FEW060 FM271100 26010KT P6SM FEW250
  FM271700 24012KT P6SM SCT045 SCT100 FM272300 25011KT P6SM FEW250
  FM280400 23009KT P6SM SCT150

 TJSJ 270848Z 2709/2806 VRB05KT P6SM VCSH SCT018 BKN025 OVC045
  FM271400 06016G23KT P6SM VCSH SCT030 BKN050 FM280100 07010KT P6SM SCT030 BKN050

 MUHA 270500Z 2706/2806 03011KT 9000 BKN045

 TAF MUGM 2707/2807 33008KT 9999 SKC QNH3001INS BECMG 2712/2714 32006KT 9999 FEW030 QNH3006INS
  BECMG 2715/2717 08008KT 9999 FEW030 QNH3006INS BECMG 2718/2720 04005KT 9999 SKC QNH2998INS T22/2709Z T28/2718Z FN00262

 TAF TNCC 270515Z 2706/2806 09012KT 9999 SCT018

 TAF MKJP 270515Z 2706/2806 34005KT 9999 FEW024 BECMG 2715/2717 13015KT
  BECMG 2722/2724 34005KT

 PREPARADO POR: FRANCISCA RODRIGUEZ EL 27 DE ENERO DEL 2023.